createdAt,value
2022-07-30T00:00:33.013Z,19.14
2022-07-30T00:01:33.089Z,19.18
2022-07-30T00:02:33.007Z,19.09
2022-07-30T00:03:33.005Z,19.11
2022-07-30T00:04:32.998Z,19.00
2022-07-30T00:05:32.992Z,19.07
2022-07-30T00:06:32.993Z,19.07
2022-07-30T00:07:33.003Z,19.07
2022-07-30T00:08:32.981Z,19.07
2022-07-30T00:09:34.347Z,19.08
2022-07-30T00:10:32.978Z,19.08
2022-07-30T00:11:32.979Z,19.11
2022-07-30T00:12:32.971Z,19.08
2022-07-30T00:13:32.963Z,19.09
2022-07-30T00:14:32.963Z,19.09
2022-07-30T00:15:32.958Z,19.12
2022-07-30T00:16:32.998Z,19.08
2022-07-30T00:17:32.952Z,19.07
2022-07-30T00:18:32.945Z,19.11
2022-07-30T00:19:32.945Z,19.14
2022-07-30T00:20:32.942Z,19.08
2022-07-30T00:21:35.973Z,19.08
2022-07-30T00:22:32.934Z,19.08
2022-07-30T00:23:32.929Z,19.09
2022-07-30T00:24:32.927Z,19.07
2022-07-30T00:25:32.925Z,18.98
2022-07-30T00:26:32.926Z,19.04
2022-07-30T00:27:32.917Z,19.07
2022-07-30T00:28:32.909Z,19.09
2022-07-30T00:29:32.906Z,19.07
2022-07-30T00:30:32.931Z,19.08
2022-07-30T00:31:32.905Z,19.07
2022-07-30T00:32:32.904Z,19.07
2022-07-30T00:33:32.892Z,19.04
2022-07-30T00:34:32.887Z,19.07
2022-07-30T00:35:32.885Z,19.08
2022-07-30T00:36:32.885Z,19.02
2022-07-30T00:37:32.878Z,19.02
2022-07-30T00:38:32.870Z,19.07
2022-07-30T00:39:32.871Z,19.02
2022-07-30T00:40:32.868Z,19.07
2022-07-30T00:41:32.863Z,19.04
2022-07-30T00:42:32.860Z,19.04
2022-07-30T00:43:32.862Z,19.08
2022-07-30T00:44:32.855Z,19.11
2022-07-30T00:45:32.904Z,19.08
2022-07-30T00:46:32.843Z,19.02
2022-07-30T00:47:32.841Z,19.02
2022-07-30T00:48:32.834Z,18.95
2022-07-30T00:49:32.833Z,18.95
2022-07-30T00:50:32.833Z,18.96
2022-07-30T00:51:32.830Z,18.93
2022-07-30T00:52:32.821Z,18.95
2022-07-30T00:53:32.816Z,18.93
2022-07-30T00:54:32.809Z,18.84
2022-07-30T00:55:32.813Z,18.77
2022-07-30T00:56:32.805Z,18.89
2022-07-30T00:57:32.802Z,18.74
2022-07-30T00:58:32.800Z,18.77
2022-07-30T00:59:32.798Z,18.86
2022-07-30T01:00:32.790Z,18.78
2022-07-30T01:01:32.893Z,18.78
2022-07-30T01:02:32.816Z,18.77
2022-07-30T01:03:32.779Z,18.78
2022-07-30T01:04:32.778Z,18.71
2022-07-30T01:05:32.770Z,18.78
2022-07-30T01:06:32.768Z,18.70
2022-07-30T01:07:32.766Z,18.75
2022-07-30T01:08:32.758Z,18.78
2022-07-30T01:09:32.758Z,18.73
2022-07-30T01:10:32.754Z,18.83
2022-07-30T01:11:32.765Z,18.68
2022-07-30T01:12:32.748Z,18.70
2022-07-30T01:13:32.740Z,18.71
2022-07-30T01:14:32.735Z,18.70
2022-07-30T01:15:32.734Z,18.66
2022-07-30T01:16:32.804Z,18.60
2022-07-30T01:17:32.725Z,18.53
2022-07-30T01:18:32.721Z,18.60
2022-07-30T01:19:32.718Z,18.53
2022-07-30T01:20:32.721Z,18.53
2022-07-30T01:21:32.710Z,18.55
2022-07-30T01:22:32.707Z,18.58
2022-07-30T01:23:32.700Z,18.53
2022-07-30T01:24:32.703Z,18.55
2022-07-30T01:25:32.693Z,18.52
2022-07-30T01:26:32.692Z,18.44
2022-07-30T01:27:32.687Z,18.47
2022-07-30T01:28:32.682Z,18.44
2022-07-30T01:29:32.677Z,18.47
2022-07-30T01:30:32.675Z,18.44
2022-07-30T01:31:32.681Z,18.45
2022-07-30T01:32:32.667Z,18.44
2022-07-30T01:33:32.659Z,18.52
2022-07-30T01:34:32.679Z,18.53
2022-07-30T01:35:32.654Z,18.53
2022-07-30T01:36:32.651Z,18.52
2022-07-30T01:37:32.646Z,18.43
2022-07-30T01:38:34.964Z,18.43
2022-07-30T01:39:32.642Z,18.45
2022-07-30T01:40:32.635Z,18.47
2022-07-30T01:41:32.629Z,18.41
2022-07-30T01:42:32.629Z,18.38
2022-07-30T01:43:32.620Z,18.33
2022-07-30T01:44:32.616Z,18.38
2022-07-30T01:45:33.796Z,18.38
2022-07-30T01:46:32.612Z,18.41
2022-07-30T01:47:32.605Z,18.38
2022-07-30T01:48:32.601Z,18.37
2022-07-30T01:49:32.599Z,18.50
2022-07-30T01:50:32.598Z,18.52
2022-07-30T01:51:37.429Z,18.50
2022-07-30T01:52:32.590Z,18.35
2022-07-30T01:53:32.571Z,18.35
2022-07-30T01:54:32.579Z,18.41
2022-07-30T01:55:32.573Z,18.29
2022-07-30T01:56:32.571Z,18.23
2022-07-30T01:57:32.566Z,18.28
2022-07-30T01:58:32.559Z,18.35
2022-07-30T01:59:32.560Z,18.29
2022-07-30T02:00:32.658Z,18.28
2022-07-30T02:01:32.553Z,18.34
2022-07-30T02:02:32.548Z,18.29
2022-07-30T02:03:32.595Z,18.26
2022-07-30T02:04:32.539Z,18.18
2022-07-30T02:05:32.535Z,18.15
2022-07-30T02:06:32.532Z,18.18
2022-07-30T02:07:32.524Z,18.15
2022-07-30T02:08:32.519Z,18.16
2022-07-30T02:09:32.514Z,18.05
2022-07-30T02:10:32.530Z,18.10
2022-07-30T02:11:32.695Z,18.05
2022-07-30T02:12:32.508Z,18.03
2022-07-30T02:13:32.501Z,17.98
2022-07-30T02:14:32.499Z,17.95
2022-07-30T02:15:32.495Z,17.97
2022-07-30T02:16:32.531Z,17.97
2022-07-30T02:17:34.749Z,17.98
2022-07-30T02:18:32.477Z,17.97
2022-07-30T02:19:32.914Z,18.00
2022-07-30T02:20:32.470Z,17.97
2022-07-30T02:21:36.664Z,18.03
2022-07-30T02:22:32.468Z,17.98
2022-07-30T02:23:32.457Z,17.95
2022-07-30T02:24:32.456Z,17.86
2022-07-30T02:25:32.452Z,17.82
2022-07-30T02:26:32.494Z,17.74
2022-07-30T02:27:32.447Z,17.78
2022-07-30T02:28:32.441Z,17.78
2022-07-30T02:29:32.434Z,17.64
2022-07-30T02:30:32.429Z,17.65
2022-07-30T02:31:32.436Z,17.67
2022-07-30T02:32:32.446Z,17.68
2022-07-30T02:33:32.413Z,17.67
2022-07-30T02:34:32.411Z,17.65
2022-07-30T02:35:32.402Z,17.67
2022-07-30T02:36:32.405Z,17.67
2022-07-30T02:37:39.205Z,17.59
2022-07-30T02:38:32.395Z,17.63
2022-07-30T02:39:32.393Z,17.67
2022-07-30T02:40:32.385Z,17.63
2022-07-30T02:41:32.382Z,17.70
2022-07-30T02:42:32.380Z,17.71
2022-07-30T02:43:36.249Z,17.63
2022-07-30T02:44:32.372Z,17.70
2022-07-30T02:45:32.364Z,17.67
2022-07-30T02:46:32.475Z,17.64
2022-07-30T02:47:32.353Z,17.67
2022-07-30T02:48:35.019Z,17.65
2022-07-30T02:49:32.370Z,17.65
2022-07-30T02:50:32.344Z,17.64
2022-07-30T02:51:32.341Z,17.67
2022-07-30T02:52:32.338Z,17.64
2022-07-30T02:53:32.329Z,17.70
2022-07-30T02:54:32.331Z,17.51
2022-07-30T02:55:32.319Z,17.51
2022-07-30T02:56:32.322Z,17.49
2022-07-30T02:57:32.316Z,17.63
2022-07-30T02:58:32.309Z,17.57
2022-07-30T02:59:32.308Z,17.68
2022-07-30T03:00:32.390Z,17.70
2022-07-30T03:01:32.314Z,17.63
2022-07-30T03:02:32.420Z,17.63
2022-07-30T03:03:32.299Z,17.70
2022-07-30T03:04:32.284Z,17.68
2022-07-30T03:05:32.280Z,17.60
2022-07-30T03:06:32.279Z,17.70
2022-07-30T03:07:32.273Z,17.64
2022-07-30T03:08:32.263Z,17.71
2022-07-30T03:09:50.767Z,17.54
2022-07-30T03:10:32.253Z,17.67
2022-07-30T03:11:32.251Z,17.67
2022-07-30T03:12:32.245Z,17.68
2022-07-30T03:13:32.242Z,17.48
2022-07-30T03:14:32.240Z,17.48
2022-07-30T03:15:32.235Z,17.57
2022-07-30T03:16:32.257Z,17.54
2022-07-30T03:17:32.224Z,17.51
2022-07-30T03:18:32.219Z,17.51
2022-07-30T03:19:32.218Z,17.46
2022-07-30T03:20:32.213Z,17.42
2022-07-30T03:21:32.207Z,17.39
2022-07-30T03:22:33.244Z,17.41
2022-07-30T03:23:32.194Z,17.36
2022-07-30T03:24:32.198Z,17.34
2022-07-30T03:25:32.187Z,17.36
2022-07-30T03:26:32.193Z,17.34
2022-07-30T03:27:32.182Z,17.33
2022-07-30T03:28:32.176Z,17.24
2022-07-30T03:29:32.170Z,17.24
2022-07-30T03:30:32.170Z,17.24
2022-07-30T03:31:36.412Z,17.22
2022-07-30T03:32:32.160Z,17.24
2022-07-30T03:33:37.953Z,17.27
2022-07-30T03:34:32.149Z,17.19
2022-07-30T03:35:32.145Z,17.19
2022-07-30T03:36:32.142Z,17.20
2022-07-30T03:37:32.132Z,17.16
2022-07-30T03:38:32.128Z,17.15
2022-07-30T03:39:32.136Z,17.02
2022-07-30T03:40:32.123Z,17.04
2022-07-30T03:41:32.121Z,17.08
2022-07-30T03:42:32.114Z,17.01
2022-07-30T03:43:33.083Z,16.99
2022-07-30T03:44:32.107Z,17.11
2022-07-30T03:45:32.093Z,17.02
2022-07-30T03:46:32.148Z,16.93
2022-07-30T03:47:32.088Z,16.96
2022-07-30T03:48:32.084Z,16.93
2022-07-30T03:49:32.079Z,16.97
2022-07-30T03:50:32.074Z,16.97
2022-07-30T03:51:33.024Z,16.96
2022-07-30T03:52:32.069Z,16.93
2022-07-30T03:53:32.059Z,16.94
2022-07-30T03:54:32.059Z,16.96
2022-07-30T03:55:32.049Z,16.94
2022-07-30T03:56:32.063Z,16.91
2022-07-30T03:57:32.045Z,16.97
2022-07-30T03:58:35.996Z,16.94
2022-07-30T03:59:32.035Z,16.96
2022-07-30T04:00:32.035Z,16.96
2022-07-30T04:01:32.091Z,16.94
2022-07-30T04:02:32.021Z,16.93
2022-07-30T04:03:32.070Z,16.93
2022-07-30T04:04:32.012Z,16.79
2022-07-30T04:05:40.962Z,16.86
2022-07-30T04:06:32.002Z,16.84
2022-07-30T04:07:32.001Z,16.86
2022-07-30T04:08:31.996Z,16.94
2022-07-30T04:09:31.986Z,16.78
2022-07-30T04:10:31.984Z,16.81
2022-07-30T04:11:40.613Z,16.76
2022-07-30T04:12:31.978Z,16.75
2022-07-30T04:13:31.965Z,16.75
2022-07-30T04:14:31.966Z,16.74
2022-07-30T04:16:31.775Z,16.75
2022-07-30T04:16:39.112Z,16.81
2022-07-30T04:17:32.089Z,16.78
2022-07-30T04:18:31.944Z,16.84
2022-07-30T04:19:31.938Z,16.86
2022-07-30T04:20:31.936Z,16.87
2022-07-30T04:21:31.924Z,16.86
2022-07-30T04:22:31.925Z,16.83
2022-07-30T04:23:31.918Z,16.84
2022-07-30T04:24:31.903Z,16.89
2022-07-30T04:25:31.908Z,16.78
2022-07-30T04:26:31.904Z,16.84
2022-07-30T04:27:31.897Z,16.78
2022-07-30T04:28:31.895Z,16.84
2022-07-30T04:29:31.892Z,16.87
2022-07-30T04:30:31.885Z,16.91
2022-07-30T04:31:31.943Z,16.93
2022-07-30T04:32:31.878Z,16.96
2022-07-30T04:33:31.872Z,16.90
2022-07-30T04:34:31.866Z,16.87
2022-07-30T04:35:51.079Z,16.79
2022-07-30T04:36:31.859Z,16.72
2022-07-30T04:37:31.852Z,16.71
2022-07-30T04:38:31.852Z,16.74
2022-07-30T04:39:31.843Z,16.71
2022-07-30T04:40:31.835Z,16.66
2022-07-30T04:41:35.386Z,16.64
2022-07-30T04:42:31.820Z,16.65
2022-07-30T04:43:31.826Z,16.64
2022-07-30T04:44:31.821Z,16.57
2022-07-30T04:45:31.810Z,16.72
2022-07-30T04:46:31.833Z,16.68
2022-07-30T04:47:31.805Z,16.72
2022-07-30T04:48:31.804Z,16.72
2022-07-30T04:49:31.817Z,16.64
2022-07-30T04:50:31.790Z,16.68
2022-07-30T04:51:31.788Z,16.72
2022-07-30T04:52:31.778Z,16.72
2022-07-30T04:53:31.777Z,16.75
2022-07-30T04:54:31.774Z,16.61
2022-07-30T04:55:31.761Z,16.69
2022-07-30T04:56:31.762Z,16.66
2022-07-30T04:57:31.756Z,16.68
2022-07-30T04:58:31.754Z,16.69
2022-07-30T04:59:31.743Z,16.76
2022-07-30T05:00:32.618Z,16.75
2022-07-30T05:01:37.125Z,16.68
2022-07-30T05:02:31.732Z,16.84
2022-07-30T05:03:31.726Z,16.84
2022-07-30T05:04:31.722Z,16.89
2022-07-30T05:05:31.716Z,16.90
2022-07-30T05:06:31.713Z,16.89
2022-07-30T05:07:31.706Z,16.94
2022-07-30T05:08:31.705Z,16.93
2022-07-30T05:09:31.715Z,17.04
2022-07-30T05:10:31.686Z,17.05
2022-07-30T05:11:31.683Z,17.08
2022-07-30T05:12:31.686Z,17.09
2022-07-30T05:13:34.325Z,17.12
2022-07-30T05:14:31.677Z,17.14
2022-07-30T05:15:37.264Z,17.20
2022-07-30T05:16:31.665Z,17.23
2022-07-30T05:17:31.661Z,17.15
2022-07-30T05:18:31.655Z,17.16
2022-07-30T05:19:31.648Z,17.23
2022-07-30T05:20:31.641Z,17.30
2022-07-30T05:21:31.638Z,17.31
2022-07-30T05:22:31.635Z,17.34
2022-07-30T05:23:31.625Z,17.38
2022-07-30T05:24:31.625Z,17.38
2022-07-30T05:25:31.615Z,17.51
2022-07-30T05:26:31.648Z,17.54
2022-07-30T05:27:31.611Z,17.48
2022-07-30T05:28:31.605Z,17.52
2022-07-30T05:29:31.608Z,17.56
2022-07-30T05:30:31.594Z,17.54
2022-07-30T05:31:32.801Z,17.67
2022-07-30T05:32:31.589Z,17.65
2022-07-30T05:33:42.205Z,17.67
2022-07-30T05:34:31.582Z,17.70
2022-07-30T05:35:31.570Z,17.72
2022-07-30T05:36:31.566Z,17.82
2022-07-30T05:37:31.567Z,17.87
2022-07-30T05:38:31.554Z,17.85
2022-07-30T05:39:31.561Z,17.90
2022-07-30T05:40:31.545Z,17.86
2022-07-30T05:41:32.948Z,17.95
2022-07-30T05:42:31.543Z,17.86
2022-07-30T05:43:31.532Z,17.86
2022-07-30T05:44:31.534Z,17.83
2022-07-30T05:45:31.591Z,17.92
2022-07-30T05:46:31.575Z,17.79
2022-07-30T05:47:31.550Z,17.86
2022-07-30T05:48:31.509Z,17.87
2022-07-30T05:49:31.568Z,17.90
2022-07-30T05:50:31.501Z,17.94
2022-07-30T05:51:31.508Z,17.97
2022-07-30T05:52:31.492Z,17.98
2022-07-30T05:53:31.487Z,18.04
2022-07-30T05:54:31.484Z,18.07
2022-07-30T05:55:31.501Z,18.04
2022-07-30T05:56:31.476Z,18.05
2022-07-30T05:57:31.472Z,18.04
2022-07-30T05:58:31.464Z,18.16
2022-07-30T05:59:31.462Z,18.11
2022-07-30T06:00:31.458Z,18.18
2022-07-30T06:01:31.487Z,18.20
2022-07-30T06:02:31.448Z,18.28
2022-07-30T06:03:31.441Z,18.25
2022-07-30T06:04:31.484Z,18.34
2022-07-30T06:05:31.446Z,18.38
2022-07-30T06:06:31.429Z,18.35
2022-07-30T06:07:31.427Z,18.38
2022-07-30T06:08:31.418Z,18.45
2022-07-30T06:09:36.394Z,18.49
2022-07-30T06:10:31.412Z,18.52
2022-07-30T06:11:31.408Z,18.63
2022-07-30T06:12:31.403Z,18.70
2022-07-30T06:13:31.396Z,18.78
2022-07-30T06:14:31.390Z,18.81
2022-07-30T06:15:31.409Z,18.73
2022-07-30T06:16:31.384Z,18.73
2022-07-30T06:17:31.376Z,18.74
2022-07-30T06:18:31.375Z,18.78
2022-07-30T06:19:31.373Z,18.80
2022-07-30T06:20:31.367Z,18.86
2022-07-30T06:22:05.491Z,18.96
2022-07-30T06:22:31.354Z,18.93
2022-07-30T06:23:31.354Z,19.08
2022-07-30T06:24:31.356Z,19.09
2022-07-30T06:25:31.346Z,19.12
2022-07-30T06:26:31.345Z,19.11
2022-07-30T06:27:33.013Z,19.15
2022-07-30T06:28:39.424Z,19.18
2022-07-30T06:29:31.329Z,19.21
2022-07-30T06:30:31.646Z,19.31
2022-07-30T06:31:31.379Z,19.33
2022-07-30T06:32:31.318Z,19.21
2022-07-30T06:33:31.366Z,19.22
2022-07-30T06:34:31.365Z,19.19
2022-07-30T06:35:31.305Z,19.26
2022-07-30T06:36:31.320Z,19.36
2022-07-30T06:38:06.370Z,19.44
2022-07-30T06:38:31.286Z,19.37
2022-07-30T06:39:58.001Z,19.40
2022-07-30T06:40:31.283Z,19.40
2022-07-30T06:41:31.282Z,19.44
2022-07-30T06:42:31.277Z,19.45
2022-07-30T06:43:31.273Z,19.41
2022-07-30T06:44:31.270Z,19.40
2022-07-30T06:45:31.260Z,19.45
2022-07-30T06:46:31.313Z,19.41
2022-07-30T06:47:31.257Z,19.47
2022-07-30T06:48:31.255Z,19.41
2022-07-30T06:49:31.248Z,19.41
2022-07-30T06:50:31.238Z,19.37
2022-07-30T06:51:31.240Z,19.41
2022-07-30T06:52:31.232Z,19.41
2022-07-30T06:53:31.227Z,19.47
2022-07-30T06:54:31.225Z,19.51
2022-07-30T06:55:31.219Z,19.49
2022-07-30T06:56:31.216Z,19.54
2022-07-30T06:57:31.215Z,19.64
2022-07-30T06:58:31.206Z,19.67
2022-07-30T06:59:31.210Z,19.69
2022-07-30T07:00:31.201Z,19.82
2022-07-30T07:01:31.215Z,19.85
2022-07-30T07:02:31.199Z,19.92
2022-07-30T07:03:39.737Z,19.99
2022-07-30T07:04:31.229Z,19.94
2022-07-30T07:05:31.192Z,20.06
2022-07-30T07:06:31.178Z,20.09
2022-07-30T07:07:41.284Z,20.09
2022-07-30T07:08:31.171Z,20.00
2022-07-30T07:09:31.166Z,20.04
2022-07-30T07:10:31.161Z,19.96
2022-07-30T07:11:31.157Z,19.94
2022-07-30T07:12:31.155Z,20.03
2022-07-30T07:13:31.149Z,20.07
2022-07-30T07:14:31.145Z,20.03
2022-07-30T07:15:37.119Z,20.13
2022-07-30T07:16:31.262Z,20.04
2022-07-30T07:17:31.131Z,20.22
2022-07-30T07:18:31.129Z,20.28
2022-07-30T07:20:00.199Z,20.43
2022-07-30T07:20:31.121Z,20.39
2022-07-30T07:21:31.118Z,20.39
2022-07-30T07:22:31.114Z,20.58
2022-07-30T07:23:39.857Z,20.62
2022-07-30T07:24:31.157Z,20.66
2022-07-30T07:25:31.105Z,20.66
2022-07-30T07:26:31.098Z,20.80
2022-07-30T07:27:31.100Z,20.75
2022-07-30T07:37:20.688Z,20.93
2022-07-30T07:37:42.812Z,21.06
2022-07-30T07:39:46.791Z,21.00
2022-07-30T07:40:46.780Z,21.17
2022-07-30T07:42:50.744Z,21.20
2022-07-30T07:43:50.755Z,21.24
2022-07-30T07:45:43.880Z,21.25
2022-07-30T07:46:43.869Z,21.29
2022-07-30T07:48:36.698Z,21.22
2022-07-30T07:49:36.683Z,21.29
2022-07-30T07:51:47.203Z,21.32
2022-07-30T07:52:40.654Z,21.32
2022-07-30T07:54:44.616Z,21.40
2022-07-30T07:55:44.608Z,21.45
2022-07-30T07:57:48.578Z,21.60
2022-07-30T07:58:48.556Z,21.60
2022-07-30T08:00:52.545Z,21.69
2022-07-30T08:01:52.516Z,21.79
2022-07-30T08:03:56.475Z,21.89
2022-07-30T08:04:56.483Z,21.89
2022-07-30T08:07:00.642Z,22.02
2022-07-30T08:08:00.431Z,22.00
2022-07-30T08:10:04.396Z,22.10
2022-07-30T08:11:04.378Z,22.11
2022-07-30T08:13:48.498Z,22.11
2022-07-30T08:14:08.367Z,22.04
2022-07-30T08:16:12.774Z,22.04
2022-07-30T08:17:12.365Z,21.95
2022-07-30T08:19:05.174Z,21.89
2022-07-30T08:20:05.157Z,21.83
2022-07-30T08:22:09.110Z,21.83
2022-07-30T08:23:09.106Z,21.83
2022-07-30T08:25:22.325Z,21.93
2022-07-30T08:26:13.077Z,21.88
2022-07-30T08:28:35.160Z,21.91
2022-07-30T08:29:17.399Z,21.83
2022-07-30T08:31:20.984Z,21.96
2022-07-30T08:32:20.980Z,22.10
2022-07-30T08:34:25.743Z,22.29
2022-07-30T08:35:24.929Z,22.39
2022-07-30T08:37:28.883Z,22.54
2022-07-30T08:38:28.877Z,22.60
2022-07-30T08:40:32.848Z,22.80
2022-07-30T08:41:32.821Z,22.72
2022-07-30T08:43:36.786Z,22.73
2022-07-30T08:44:36.775Z,22.78
2022-07-30T08:46:40.734Z,22.75
2022-07-30T08:47:40.725Z,22.80
2022-07-30T08:49:44.693Z,22.73
2022-07-30T08:50:44.675Z,22.84
2022-07-30T08:52:48.640Z,23.00
2022-07-30T08:53:48.632Z,23.09
2022-07-30T08:55:55.635Z,23.18
2022-07-30T08:56:52.582Z,23.28
2022-07-30T08:58:45.473Z,23.27
2022-07-30T08:59:59.248Z,23.06
2022-07-30T09:01:49.419Z,23.23
2022-07-30T09:02:49.417Z,23.32
2022-07-30T09:04:53.424Z,23.43
2022-07-30T09:05:53.408Z,23.41
2022-07-30T09:07:57.386Z,23.56
2022-07-30T09:08:57.376Z,23.69
2022-07-30T09:11:01.351Z,23.50
2022-07-30T09:12:01.342Z,23.58
2022-07-30T09:14:08.501Z,23.68
2022-07-30T09:15:05.292Z,23.77
2022-07-30T09:17:09.252Z,23.99
2022-07-30T09:18:09.244Z,23.95
2022-07-30T09:20:13.201Z,24.05
2022-07-30T09:21:13.187Z,24.13
2022-07-30T09:23:17.152Z,24.33
2022-07-30T09:24:17.145Z,24.29
2022-07-30T09:26:21.119Z,24.26
2022-07-30T09:27:21.101Z,24.13
2022-07-30T09:29:13.999Z,24.13
2022-07-30T09:30:13.981Z,24.13
2022-07-30T09:32:17.944Z,23.99
2022-07-30T09:33:17.962Z,23.92
2022-07-30T09:35:21.914Z,23.78
2022-07-30T09:36:21.899Z,23.80
2022-07-30T09:38:25.889Z,23.91
2022-07-30T09:39:25.875Z,24.11
2022-07-30T09:41:38.828Z,24.33
2022-07-30T09:42:29.824Z,24.38
2022-07-30T09:44:33.794Z,24.55
2022-07-30T09:45:34.721Z,24.70
2022-07-30T09:47:37.743Z,24.69
2022-07-30T09:48:37.733Z,24.58
2022-07-30T09:50:41.701Z,24.70
2022-07-30T09:51:56.168Z,24.74
2022-07-30T09:53:45.648Z,24.88
2022-07-30T09:54:51.018Z,24.99
2022-07-30T09:57:52.211Z,24.89
2022-07-30T09:59:53.573Z,24.86
2022-07-30T10:02:57.525Z,24.68
2022-07-30T10:03:57.516Z,24.35
2022-07-30T10:06:01.489Z,24.32
2022-07-30T10:07:01.475Z,24.48
2022-07-30T10:08:54.360Z,24.54
2022-07-30T10:09:54.376Z,24.70
2022-07-30T10:11:58.314Z,24.88
2022-07-30T10:12:58.311Z,24.89
2022-07-30T10:15:02.276Z,24.92
2022-07-30T10:16:02.264Z,25.18
2022-07-30T10:18:06.805Z,25.22
2022-07-30T10:19:07.148Z,25.28
2022-07-30T10:21:10.200Z,25.32
2022-07-30T10:22:10.187Z,25.48
2022-07-30T10:24:14.149Z,25.72
2022-07-30T10:25:16.282Z,25.68
2022-07-30T10:27:18.104Z,25.58
2022-07-30T10:28:18.093Z,25.68
2022-07-30T10:30:27.693Z,25.80
2022-07-30T10:31:48.199Z,25.81
2022-07-30T10:33:36.601Z,25.87
2022-07-30T10:34:27.024Z,25.96
2022-07-30T10:36:29.971Z,25.78
2022-07-30T10:37:29.954Z,25.81
2022-07-30T10:39:22.847Z,26.13
2022-07-30T10:40:23.101Z,26.10
2022-07-30T10:42:26.804Z,26.09
2022-07-30T10:43:31.501Z,26.19
2022-07-30T10:45:30.786Z,26.31
2022-07-30T10:46:31.679Z,26.26
2022-07-30T10:48:23.644Z,26.51
2022-07-30T10:49:23.701Z,26.63
2022-07-30T10:51:34.717Z,26.73
2022-07-30T10:52:27.595Z,26.60
2022-07-30T10:54:31.561Z,26.52
2022-07-30T10:55:36.593Z,26.45
2022-07-30T10:57:41.320Z,26.62
2022-07-30T10:58:35.531Z,26.59
2022-07-30T11:00:39.518Z,26.41
2022-07-30T11:01:39.488Z,26.43
2022-07-30T11:03:45.222Z,26.66
2022-07-30T11:04:43.438Z,26.77
2022-07-30T11:06:47.412Z,26.84
2022-07-30T11:07:47.626Z,26.88
2022-07-30T11:10:05.542Z,26.74
2022-07-30T11:10:51.358Z,26.90
2022-07-30T11:12:55.326Z,26.90
2022-07-30T11:13:55.318Z,27.10
2022-07-30T11:15:59.281Z,27.22
2022-07-30T11:16:59.275Z,27.25
2022-07-30T11:19:19.568Z,27.32
2022-07-30T11:20:01.668Z,27.35
2022-07-30T11:21:45.502Z,27.33
2022-07-30T11:22:45.433Z,27.15
2022-07-30T11:24:49.404Z,27.22
2022-07-30T11:25:51.615Z,27.35
2022-07-30T11:27:53.425Z,27.36
2022-07-30T11:28:53.418Z,27.32
2022-07-30T11:30:57.397Z,27.51
2022-07-30T11:31:58.756Z,27.55
2022-07-30T11:34:01.342Z,27.85
2022-07-30T11:35:01.336Z,27.90
2022-07-30T11:37:18.480Z,28.08
2022-07-30T11:38:05.302Z,28.26
2022-07-30T11:40:09.267Z,28.45
2022-07-30T11:41:09.261Z,28.63
2022-07-30T11:43:13.232Z,28.54
2022-07-30T11:44:13.223Z,28.47
2022-07-30T11:46:17.198Z,28.54
2022-07-30T11:47:17.188Z,28.49
2022-07-30T11:49:10.128Z,28.76
2022-07-30T11:50:10.117Z,28.76
2022-07-30T11:52:14.068Z,29.02
2022-07-30T11:53:14.060Z,29.23
2022-07-30T11:55:18.029Z,29.05
2022-07-30T11:56:18.026Z,28.81
2022-07-30T11:58:22.008Z,28.76
2022-07-30T11:59:22.001Z,28.79
2022-07-30T12:01:15.102Z,28.75
2022-07-30T12:02:15.094Z,28.79
2022-07-30T12:04:19.080Z,28.81
2022-07-30T12:05:19.064Z,28.98
2022-07-30T12:07:23.044Z,28.82
2022-07-30T12:08:35.106Z,28.97
2022-07-30T12:10:27.686Z,28.96
2022-07-30T12:11:27.012Z,28.88
2022-07-30T12:13:45.291Z,29.02
2022-07-30T12:14:30.979Z,29.05
2022-07-30T12:16:34.961Z,28.98
2022-07-30T12:17:34.960Z,29.13
2022-07-30T12:19:47.893Z,29.10
2022-07-30T12:20:38.932Z,29.19
2022-07-30T12:22:42.916Z,29.34
2022-07-30T12:23:42.906Z,29.35
2022-07-30T12:25:47.142Z,29.53
2022-07-30T12:26:47.795Z,29.47
2022-07-30T12:28:39.779Z,29.50
2022-07-30T12:29:39.774Z,29.57
2022-07-30T12:31:43.752Z,29.71
2022-07-30T12:32:43.751Z,29.76
2022-07-30T12:34:47.720Z,29.59
2022-07-30T12:35:47.722Z,29.65
2022-07-30T12:37:51.714Z,29.95
2022-07-30T12:38:51.703Z,29.97
2022-07-30T12:40:55.683Z,29.61
2022-07-30T12:41:55.675Z,29.65
2022-07-30T12:43:59.644Z,29.78
2022-07-30T12:44:59.642Z,29.76
2022-07-30T12:47:04.588Z,29.90
2022-07-30T12:48:03.620Z,29.86
2022-07-30T12:50:07.612Z,29.54
2022-07-30T12:51:07.588Z,29.54
2022-07-30T12:53:11.569Z,29.31
2022-07-30T12:54:11.560Z,29.47
2022-07-30T12:56:15.581Z,29.49
2022-07-30T12:57:15.537Z,29.39
2022-07-30T12:59:08.431Z,29.59
2022-07-30T13:00:08.482Z,29.71
2022-07-30T13:02:12.400Z,29.75
2022-07-30T13:03:12.394Z,29.82
2022-07-30T13:05:16.366Z,30.10
2022-07-30T13:06:16.367Z,30.16
2022-07-30T13:08:20.352Z,30.15
2022-07-30T13:09:20.353Z,30.35
2022-07-30T13:11:24.329Z,30.18
2022-07-30T13:12:24.327Z,30.32
2022-07-30T13:14:28.298Z,30.69
2022-07-30T13:15:28.290Z,30.88
2022-07-30T13:17:36.222Z,30.94
2022-07-30T13:18:32.274Z,31.00
2022-07-30T13:20:36.257Z,30.88
2022-07-30T13:21:36.255Z,30.85
2022-07-30T13:23:40.238Z,30.55
2022-07-30T13:24:40.237Z,30.44
2022-07-30T13:26:44.216Z,30.30
2022-07-30T13:27:44.203Z,30.27
2022-07-30T13:29:48.181Z,30.63
2022-07-30T13:30:48.180Z,30.88
2022-07-30T13:32:52.163Z,31.18
2022-07-30T13:33:52.147Z,31.37
2022-07-30T13:35:56.130Z,31.55
2022-07-30T13:36:56.200Z,31.52
2022-07-30T13:38:52.257Z,31.28
2022-07-30T13:39:49.023Z,31.14
2022-07-30T13:41:53.010Z,31.02
2022-07-30T13:42:53.001Z,31.22
2022-07-30T13:44:56.978Z,31.47
2022-07-30T13:45:59.839Z,31.52
2022-07-30T13:47:01.502Z,31.66
2022-07-30T13:47:56.979Z,31.52
2022-07-30T13:48:57.076Z,31.24
2022-07-30T13:49:56.994Z,31.24
2022-07-30T13:50:56.991Z,31.05
2022-07-30T13:51:56.996Z,31.00
2022-07-30T13:53:01.763Z,31.20
2022-07-30T13:53:57.002Z,31.06
2022-07-30T13:54:57.026Z,30.87
2022-07-30T13:55:57.006Z,31.03
2022-07-30T13:56:57.017Z,30.83
2022-07-30T13:57:57.017Z,30.80
2022-07-30T13:58:57.029Z,30.85
2022-07-30T13:59:57.027Z,30.92
2022-07-30T14:00:57.030Z,31.09
2022-07-30T14:01:57.096Z,30.96
2022-07-30T14:02:57.035Z,31.00
2022-07-30T14:03:57.044Z,31.06
2022-07-30T14:04:57.048Z,31.07
2022-07-30T14:05:57.069Z,31.27
2022-07-30T14:06:57.055Z,31.37
2022-07-30T14:07:57.055Z,31.25
2022-07-30T14:08:57.061Z,31.25
2022-07-30T14:09:57.064Z,31.05
2022-07-30T14:10:57.067Z,31.02
2022-07-30T14:11:57.073Z,31.20
2022-07-30T14:12:57.076Z,31.44
2022-07-30T14:13:57.083Z,31.51
2022-07-30T14:14:57.082Z,31.56
2022-07-30T14:15:57.085Z,31.65
2022-07-30T14:16:57.096Z,31.87
2022-07-30T14:17:57.094Z,31.84
2022-07-30T14:18:57.105Z,31.92
2022-07-30T14:19:57.106Z,31.64
2022-07-30T14:20:57.103Z,31.76
2022-07-30T14:21:57.114Z,31.81
2022-07-30T14:22:57.114Z,31.89
2022-07-30T14:23:57.124Z,31.71
2022-07-30T14:24:57.130Z,31.93
2022-07-30T14:25:57.132Z,32.19
2022-07-30T14:26:58.327Z,32.21
2022-07-30T14:27:57.139Z,32.09
2022-07-30T14:28:57.148Z,31.80
2022-07-30T14:29:57.151Z,31.99
2022-07-30T14:30:57.154Z,32.12
2022-07-30T14:31:57.163Z,32.30
2022-07-30T14:33:01.614Z,31.99
2022-07-30T14:33:57.166Z,31.58
2022-07-30T14:34:57.172Z,31.66
2022-07-30T14:35:57.177Z,31.52
2022-07-30T14:36:57.186Z,31.54
2022-07-30T14:37:57.187Z,31.43
2022-07-30T14:38:57.197Z,31.43
2022-07-30T14:39:57.201Z,31.44
2022-07-30T14:40:57.203Z,31.69
2022-07-30T14:41:57.213Z,31.92
2022-07-30T14:42:57.218Z,31.64
2022-07-30T14:43:57.223Z,31.69
2022-07-30T14:44:57.229Z,31.76
2022-07-30T14:45:57.227Z,31.74
2022-07-30T14:46:57.239Z,31.85
2022-07-30T14:47:57.238Z,31.71
2022-07-30T14:48:57.265Z,31.64
2022-07-30T14:49:57.251Z,31.55
2022-07-30T14:51:14.368Z,31.39
2022-07-30T14:51:57.261Z,31.34
2022-07-30T14:52:57.265Z,31.39
2022-07-30T14:53:57.266Z,31.21
2022-07-30T14:54:57.274Z,30.94
2022-07-30T14:55:57.278Z,31.17
2022-07-30T14:56:58.556Z,30.94
2022-07-30T14:57:57.284Z,31.03
2022-07-30T14:58:57.290Z,31.03
2022-07-30T14:59:57.304Z,30.97
2022-07-30T15:00:57.352Z,30.88
2022-07-30T15:01:57.386Z,30.65
2022-07-30T15:02:57.310Z,30.09
2022-07-30T15:03:57.315Z,30.13
2022-07-30T15:04:57.321Z,30.21
2022-07-30T15:05:57.321Z,30.13
2022-07-30T15:06:57.331Z,29.90
2022-07-30T15:07:57.330Z,29.84
2022-07-30T15:08:57.340Z,29.94